sensor_id;sensor_type;location;lat;lon;timestamp;P1;durP1;ratioP1;P2;durP2;ratioP2
36827;SDS011;22766;48.042;11.192;2022-11-20T00:01:18;3.70;;;0.95;;
36827;SDS011;22766;48.042;11.192;2022-11-20T00:03:47;1.40;;;0.80;;
36827;SDS011;22766;48.042;11.192;2022-11-20T00:06:15;1.58;;;0.80;;
36827;SDS011;22766;48.042;11.192;2022-11-20T00:08:44;0.95;;;0.65;;
36827;SDS011;22766;48.042;11.192;2022-11-20T00:11:12;0.80;;;0.50;;
36827;SDS011;22766;48.042;11.192;2022-11-20T00:13:45;1.75;;;0.80;;
36827;SDS011;22766;48.042;11.192;2022-11-20T00:18:41;2.05;;;0.73;;
36827;SDS011;22766;48.042;11.192;2022-11-20T00:21:27;2.58;;;0.50;;
36827;SDS011;22766;48.042;11.192;2022-11-20T00:23:55;2.58;;;0.57;;
36827;SDS011;22766;48.042;11.192;2022-11-20T00:26:23;1.15;;;0.88;;
36827;SDS011;22766;48.042;11.192;2022-11-20T00:28:59;0.85;;;0.65;;
36827;SDS011;22766;48.042;11.192;2022-11-20T00:31:27;1.10;;;0.73;;
36827;SDS011;22766;48.042;11.192;2022-11-20T00:33:54;1.15;;;0.80;;
36827;SDS011;22766;48.042;11.192;2022-11-20T00:36:22;2.03;;;0.75;;
36827;SDS011;22766;48.042;11.192;2022-11-20T00:38:53;0.88;;;0.65;;
36827;SDS011;22766;48.042;11.192;2022-11-20T00:41:21;0.40;;;0.40;;
36827;SDS011;22766;48.042;11.192;2022-11-20T00:43:49;1.55;;;1.08;;
36827;SDS011;22766;48.042;11.192;2022-11-20T00:46:18;1.60;;;0.90;;
36827;SDS011;22766;48.042;11.192;2022-11-20T00:48:46;1.10;;;0.90;;
36827;SDS011;22766;48.042;11.192;2022-11-20T00:51:23;1.30;;;0.85;;
36827;SDS011;22766;48.042;11.192;2022-11-20T00:53:51;0.93;;;0.77;;
36827;SDS011;22766;48.042;11.192;2022-11-20T00:56:18;1.40;;;0.85;;
36827;SDS011;22766;48.042;11.192;2022-11-20T00:58:46;2.15;;;1.08;;
36827;SDS011;22766;48.042;11.192;2022-11-20T01:01:23;1.58;;;0.77;;
36827;SDS011;22766;48.042;11.192;2022-11-20T01:03:53;1.95;;;0.80;;
36827;SDS011;22766;48.042;11.192;2022-11-20T01:06:29;1.15;;;0.82;;
36827;SDS011;22766;48.042;11.192;2022-11-20T01:08:59;1.40;;;0.65;;
36827;SDS011;22766;48.042;11.192;2022-11-20T01:11:28;1.73;;;0.95;;
36827;SDS011;22766;48.042;11.192;2022-11-20T01:13:57;1.40;;;0.88;;
36827;SDS011;22766;48.042;11.192;2022-11-20T01:16:25;1.20;;;0.77;;
36827;SDS011;22766;48.042;11.192;2022-11-20T01:18:55;2.20;;;1.13;;
36827;SDS011;22766;48.042;11.192;2022-11-20T01:21:31;1.80;;;1.05;;
36827;SDS011;22766;48.042;11.192;2022-11-20T01:24:00;3.10;;;1.08;;
36827;SDS011;22766;48.042;11.192;2022-11-20T01:26:30;1.83;;;1.00;;
36827;SDS011;22766;48.042;11.192;2022-11-20T01:29:01;1.38;;;0.80;;
36827;SDS011;22766;48.042;11.192;2022-11-20T01:31:30;1.85;;;1.00;;
36827;SDS011;22766;48.042;11.192;2022-11-20T01:34:00;1.50;;;0.93;;
36827;SDS011;22766;48.042;11.192;2022-11-20T01:36:29;1.38;;;0.90;;
36827;SDS011;22766;48.042;11.192;2022-11-20T01:38:58;1.25;;;0.75;;
36827;SDS011;22766;48.042;11.192;2022-11-20T01:41:28;2.13;;;0.85;;
36827;SDS011;22766;48.042;11.192;2022-11-20T01:44:16;1.35;;;1.00;;
36827;SDS011;22766;48.042;11.192;2022-11-20T01:47:06;3.28;;;0.90;;
36827;SDS011;22766;48.042;11.192;2022-11-20T01:49:40;1.63;;;1.08;;
36827;SDS011;22766;48.042;11.192;2022-11-20T01:52:14;1.00;;;0.90;;
36827;SDS011;22766;48.042;11.192;2022-11-20T01:54:44;1.92;;;1.05;;
36827;SDS011;22766;48.042;11.192;2022-11-20T01:57:20;1.38;;;1.20;;
36827;SDS011;22766;48.042;11.192;2022-11-20T01:59:54;0.88;;;0.75;;
36827;SDS011;22766;48.042;11.192;2022-11-20T02:02:26;1.70;;;0.90;;
36827;SDS011;22766;48.042;11.192;2022-11-20T02:04:54;1.67;;;1.23;;
36827;SDS011;22766;48.042;11.192;2022-11-20T02:07:24;4.13;;;1.35;;
36827;SDS011;22766;48.042;11.192;2022-11-20T02:09:51;1.15;;;0.88;;
36827;SDS011;22766;48.042;11.192;2022-11-20T02:12:24;1.75;;;1.08;;
36827;SDS011;22766;48.042;11.192;2022-11-20T02:15:09;1.55;;;1.00;;
36827;SDS011;22766;48.042;11.192;2022-11-20T02:17:36;1.92;;;1.23;;
36827;SDS011;22766;48.042;11.192;2022-11-20T02:20:02;3.22;;;1.10;;
36827;SDS011;22766;48.042;11.192;2022-11-20T02:22:35;2.47;;;1.15;;
36827;SDS011;22766;48.042;11.192;2022-11-20T02:25:14;1.88;;;0.90;;
36827;SDS011;22766;48.042;11.192;2022-11-20T02:27:41;2.15;;;1.42;;
36827;SDS011;22766;48.042;11.192;2022-11-20T02:30:08;3.35;;;1.25;;
36827;SDS011;22766;48.042;11.192;2022-11-20T02:32:37;2.80;;;1.13;;
36827;SDS011;22766;48.042;11.192;2022-11-20T02:35:08;1.50;;;1.27;;
36827;SDS011;22766;48.042;11.192;2022-11-20T02:37:59;2.30;;;1.33;;
36827;SDS011;22766;48.042;11.192;2022-11-20T02:40:28;2.28;;;1.38;;
36827;SDS011;22766;48.042;11.192;2022-11-20T02:42:56;1.67;;;1.17;;
36827;SDS011;22766;48.042;11.192;2022-11-20T02:45:23;2.53;;;1.38;;
36827;SDS011;22766;48.042;11.192;2022-11-20T02:47:51;1.95;;;1.42;;
36827;SDS011;22766;48.042;11.192;2022-11-20T02:50:18;3.60;;;1.33;;
36827;SDS011;22766;48.042;11.192;2022-11-20T02:52:45;2.55;;;1.33;;
36827;SDS011;22766;48.042;11.192;2022-11-20T02:55:11;1.95;;;1.23;;
36827;SDS011;22766;48.042;11.192;2022-11-20T02:57:38;1.33;;;0.90;;
36827;SDS011;22766;48.042;11.192;2022-11-20T03:00:05;3.65;;;1.10;;
36827;SDS011;22766;48.042;11.192;2022-11-20T03:02:33;3.13;;;1.52;;
36827;SDS011;22766;48.042;11.192;2022-11-20T03:04:59;2.40;;;1.20;;
36827;SDS011;22766;48.042;11.192;2022-11-20T03:07:26;2.03;;;1.45;;
36827;SDS011;22766;48.042;11.192;2022-11-20T03:09:53;1.38;;;1.13;;
36827;SDS011;22766;48.042;11.192;2022-11-20T03:12:19;2.17;;;1.20;;
36827;SDS011;22766;48.042;11.192;2022-11-20T03:14:46;2.42;;;1.17;;
36827;SDS011;22766;48.042;11.192;2022-11-20T03:19:44;2.80;;;1.13;;
36827;SDS011;22766;48.042;11.192;2022-11-20T03:22:11;1.65;;;1.10;;
36827;SDS011;22766;48.042;11.192;2022-11-20T03:24:37;3.72;;;1.30;;
36827;SDS011;22766;48.042;11.192;2022-11-20T03:27:04;1.80;;;1.48;;
36827;SDS011;22766;48.042;11.192;2022-11-20T03:29:31;6.72;;;1.55;;
36827;SDS011;22766;48.042;11.192;2022-11-20T03:31:57;1.77;;;1.25;;
36827;SDS011;22766;48.042;11.192;2022-11-20T03:34:24;2.58;;;1.48;;
36827;SDS011;22766;48.042;11.192;2022-11-20T03:36:50;3.72;;;1.80;;
36827;SDS011;22766;48.042;11.192;2022-11-20T03:39:17;2.33;;;1.30;;
36827;SDS011;22766;48.042;11.192;2022-11-20T03:41:44;2.97;;;1.02;;
36827;SDS011;22766;48.042;11.192;2022-11-20T03:44:11;5.20;;;1.60;;
36827;SDS011;22766;48.042;11.192;2022-11-20T03:46:37;3.08;;;1.88;;
36827;SDS011;22766;48.042;11.192;2022-11-20T03:49:04;3.95;;;1.50;;
36827;SDS011;22766;48.042;11.192;2022-11-20T03:51:32;2.65;;;1.73;;
36827;SDS011;22766;48.042;11.192;2022-11-20T03:54:01;3.70;;;1.95;;
36827;SDS011;22766;48.042;11.192;2022-11-20T03:56:31;2.63;;;1.60;;
36827;SDS011;22766;48.042;11.192;2022-11-20T03:58:59;3.78;;;1.75;;
36827;SDS011;22766;48.042;11.192;2022-11-20T04:01:30;2.70;;;1.55;;
36827;SDS011;22766;48.042;11.192;2022-11-20T04:03:59;3.15;;;1.70;;
36827;SDS011;22766;48.042;11.192;2022-11-20T04:06:27;2.22;;;1.55;;
36827;SDS011;22766;48.042;11.192;2022-11-20T04:08:56;2.70;;;1.48;;
36827;SDS011;22766;48.042;11.192;2022-11-20T04:11:25;2.88;;;1.85;;
36827;SDS011;22766;48.042;11.192;2022-11-20T04:13:57;2.75;;;1.70;;
36827;SDS011;22766;48.042;11.192;2022-11-20T04:16:25;5.35;;;1.70;;
36827;SDS011;22766;48.042;11.192;2022-11-20T04:18:56;2.67;;;1.85;;
36827;SDS011;22766;48.042;11.192;2022-11-20T04:21:25;1.83;;;1.20;;
36827;SDS011;22766;48.042;11.192;2022-11-20T04:23:52;2.70;;;1.55;;
36827;SDS011;22766;48.042;11.192;2022-11-20T04:26:20;2.47;;;1.42;;
36827;SDS011;22766;48.042;11.192;2022-11-20T04:28:48;3.78;;;1.80;;
36827;SDS011;22766;48.042;11.192;2022-11-20T04:31:16;3.28;;;1.63;;
36827;SDS011;22766;48.042;11.192;2022-11-20T04:33:44;3.03;;;1.58;;
36827;SDS011;22766;48.042;11.192;2022-11-20T04:36:12;3.65;;;1.90;;
36827;SDS011;22766;48.042;11.192;2022-11-20T04:38:39;2.17;;;1.67;;
36827;SDS011;22766;48.042;11.192;2022-11-20T04:41:07;2.33;;;1.55;;
36827;SDS011;22766;48.042;11.192;2022-11-20T04:46:05;3.20;;;1.38;;
36827;SDS011;22766;48.042;11.192;2022-11-20T04:48:31;3.15;;;1.55;;
36827;SDS011;22766;48.042;11.192;2022-11-20T04:50:58;2.15;;;1.27;;
36827;SDS011;22766;48.042;11.192;2022-11-20T04:53:30;2.42;;;1.40;;
36827;SDS011;22766;48.042;11.192;2022-11-20T04:56:00;3.50;;;1.50;;
36827;SDS011;22766;48.042;11.192;2022-11-20T04:58:27;2.30;;;1.42;;
36827;SDS011;22766;48.042;11.192;2022-11-20T05:01:00;2.08;;;1.25;;
36827;SDS011;22766;48.042;11.192;2022-11-20T05:03:28;1.67;;;1.13;;
36827;SDS011;22766;48.042;11.192;2022-11-20T05:05:54;3.17;;;1.38;;
36827;SDS011;22766;48.042;11.192;2022-11-20T05:08:21;2.80;;;1.50;;
36827;SDS011;22766;48.042;11.192;2022-11-20T05:10:47;2.58;;;1.42;;
36827;SDS011;22766;48.042;11.192;2022-11-20T05:13:14;2.63;;;1.90;;
36827;SDS011;22766;48.042;11.192;2022-11-20T05:15:41;2.00;;;1.10;;
36827;SDS011;22766;48.042;11.192;2022-11-20T05:18:07;2.08;;;1.38;;
36827;SDS011;22766;48.042;11.192;2022-11-20T05:20:34;2.40;;;1.35;;
36827;SDS011;22766;48.042;11.192;2022-11-20T05:23:02;3.13;;;1.33;;
36827;SDS011;22766;48.042;11.192;2022-11-20T05:25:28;2.45;;;1.20;;
36827;SDS011;22766;48.042;11.192;2022-11-20T05:27:55;1.55;;;1.02;;
36827;SDS011;22766;48.042;11.192;2022-11-20T05:30:22;1.85;;;1.10;;
36827;SDS011;22766;48.042;11.192;2022-11-20T05:32:48;1.80;;;1.40;;
36827;SDS011;22766;48.042;11.192;2022-11-20T05:35:15;2.83;;;1.13;;
36827;SDS011;22766;48.042;11.192;2022-11-20T05:37:41;2.05;;;1.05;;
36827;SDS011;22766;48.042;11.192;2022-11-20T05:40:08;5.05;;;1.00;;
36827;SDS011;22766;48.042;11.192;2022-11-20T05:42:35;1.10;;;0.90;;
36827;SDS011;22766;48.042;11.192;2022-11-20T05:45:03;2.13;;;1.10;;
36827;SDS011;22766;48.042;11.192;2022-11-20T05:47:33;1.63;;;1.00;;
36827;SDS011;22766;48.042;11.192;2022-11-20T05:50:01;1.27;;;0.75;;
36827;SDS011;22766;48.042;11.192;2022-11-20T05:52:28;2.72;;;1.13;;
36827;SDS011;22766;48.042;11.192;2022-11-20T05:54:55;1.92;;;0.98;;
36827;SDS011;22766;48.042;11.192;2022-11-20T05:57:22;2.97;;;1.23;;
36827;SDS011;22766;48.042;11.192;2022-11-20T05:59:49;1.67;;;0.73;;
36827;SDS011;22766;48.042;11.192;2022-11-20T06:02:15;1.20;;;0.90;;
36827;SDS011;22766;48.042;11.192;2022-11-20T06:04:42;0.95;;;0.70;;
36827;SDS011;22766;48.042;11.192;2022-11-20T06:07:09;2.35;;;0.90;;
36827;SDS011;22766;48.042;11.192;2022-11-20T06:09:36;2.90;;;1.10;;
36827;SDS011;22766;48.042;11.192;2022-11-20T06:12:03;1.27;;;0.85;;
36827;SDS011;22766;48.042;11.192;2022-11-20T06:14:30;3.63;;;1.02;;
36827;SDS011;22766;48.042;11.192;2022-11-20T06:16:56;2.10;;;0.93;;
36827;SDS011;22766;48.042;11.192;2022-11-20T06:19:23;4.43;;;1.10;;
36827;SDS011;22766;48.042;11.192;2022-11-20T06:21:49;2.95;;;1.40;;
36827;SDS011;22766;48.042;11.192;2022-11-20T06:24:16;4.45;;;1.13;;
36827;SDS011;22766;48.042;11.192;2022-11-20T06:26:44;2.10;;;1.25;;
36827;SDS011;22766;48.042;11.192;2022-11-20T06:29:10;4.90;;;1.33;;
36827;SDS011;22766;48.042;11.192;2022-11-20T06:31:38;1.58;;;1.02;;
36827;SDS011;22766;48.042;11.192;2022-11-20T06:34:05;3.83;;;1.50;;
36827;SDS011;22766;48.042;11.192;2022-11-20T06:36:35;3.35;;;1.30;;
36827;SDS011;22766;48.042;11.192;2022-11-20T06:39:03;1.92;;;1.05;;
36827;SDS011;22766;48.042;11.192;2022-11-20T06:41:29;2.20;;;1.40;;
36827;SDS011;22766;48.042;11.192;2022-11-20T06:43:56;1.83;;;1.38;;
36827;SDS011;22766;48.042;11.192;2022-11-20T06:46:23;2.75;;;1.63;;
36827;SDS011;22766;48.042;11.192;2022-11-20T06:48:49;4.55;;;1.65;;
36827;SDS011;22766;48.042;11.192;2022-11-20T06:51:17;3.05;;;1.67;;
36827;SDS011;22766;48.042;11.192;2022-11-20T06:53:44;2.03;;;1.30;;
36827;SDS011;22766;48.042;11.192;2022-11-20T06:56:10;4.15;;;1.73;;
36827;SDS011;22766;48.042;11.192;2022-11-20T06:58:37;5.10;;;2.50;;
36827;SDS011;22766;48.042;11.192;2022-11-20T07:01:05;3.22;;;1.75;;
36827;SDS011;22766;48.042;11.192;2022-11-20T07:03:35;2.17;;;1.30;;
36827;SDS011;22766;48.042;11.192;2022-11-20T07:06:02;4.00;;;1.70;;
36827;SDS011;22766;48.042;11.192;2022-11-20T07:08:30;4.43;;;1.83;;
36827;SDS011;22766;48.042;11.192;2022-11-20T07:10:58;2.13;;;1.40;;
36827;SDS011;22766;48.042;11.192;2022-11-20T07:13:29;1.30;;;1.20;;
36827;SDS011;22766;48.042;11.192;2022-11-20T07:15:59;1.88;;;1.13;;
36827;SDS011;22766;48.042;11.192;2022-11-20T07:20:54;4.00;;;1.60;;
36827;SDS011;22766;48.042;11.192;2022-11-20T07:23:20;2.47;;;1.42;;
36827;SDS011;22766;48.042;11.192;2022-11-20T07:25:47;4.30;;;1.67;;
36827;SDS011;22766;48.042;11.192;2022-11-20T07:28:14;2.40;;;1.17;;
36827;SDS011;22766;48.042;11.192;2022-11-20T07:30:40;1.88;;;1.05;;
36827;SDS011;22766;48.042;11.192;2022-11-20T07:33:07;3.97;;;1.08;;
36827;SDS011;22766;48.042;11.192;2022-11-20T07:35:33;2.78;;;1.20;;
36827;SDS011;22766;48.042;11.192;2022-11-20T07:38:00;2.40;;;1.13;;
36827;SDS011;22766;48.042;11.192;2022-11-20T07:40:26;2.85;;;1.30;;
36827;SDS011;22766;48.042;11.192;2022-11-20T07:42:54;3.55;;;1.60;;
36827;SDS011;22766;48.042;11.192;2022-11-20T07:45:22;3.05;;;1.40;;
36827;SDS011;22766;48.042;11.192;2022-11-20T07:47:50;4.63;;;1.75;;
36827;SDS011;22766;48.042;11.192;2022-11-20T07:50:17;1.48;;;1.20;;
36827;SDS011;22766;48.042;11.192;2022-11-20T07:52:44;2.00;;;1.20;;
36827;SDS011;22766;48.042;11.192;2022-11-20T07:55:11;2.40;;;1.23;;
36827;SDS011;22766;48.042;11.192;2022-11-20T07:57:38;2.17;;;1.00;;
36827;SDS011;22766;48.042;11.192;2022-11-20T08:00:05;1.50;;;0.90;;
36827;SDS011;22766;48.042;11.192;2022-11-20T08:02:38;3.30;;;1.08;;
36827;SDS011;22766;48.042;11.192;2022-11-20T08:05:06;1.85;;;1.15;;
36827;SDS011;22766;48.042;11.192;2022-11-20T08:07:37;1.60;;;1.05;;
36827;SDS011;22766;48.042;11.192;2022-11-20T08:10:05;2.83;;;1.10;;
36827;SDS011;22766;48.042;11.192;2022-11-20T08:12:34;2.28;;;1.30;;
36827;SDS011;22766;48.042;11.192;2022-11-20T08:15:19;2.28;;;1.10;;
36827;SDS011;22766;48.042;11.192;2022-11-20T08:17:45;2.72;;;1.00;;
36827;SDS011;22766;48.042;11.192;2022-11-20T08:20:32;2.63;;;0.95;;
36827;SDS011;22766;48.042;11.192;2022-11-20T08:23:00;1.42;;;1.02;;
36827;SDS011;22766;48.042;11.192;2022-11-20T08:25:30;1.75;;;1.00;;
36827;SDS011;22766;48.042;11.192;2022-11-20T08:28:04;2.45;;;1.20;;
36827;SDS011;22766;48.042;11.192;2022-11-20T08:30:45;2.42;;;1.25;;
36827;SDS011;22766;48.042;11.192;2022-11-20T08:33:12;1.30;;;0.85;;
36827;SDS011;22766;48.042;11.192;2022-11-20T08:35:39;1.80;;;0.80;;
36827;SDS011;22766;48.042;11.192;2022-11-20T08:38:08;1.60;;;0.90;;
36827;SDS011;22766;48.042;11.192;2022-11-20T08:40:35;1.02;;;0.75;;
36827;SDS011;22766;48.042;11.192;2022-11-20T08:43:01;1.25;;;0.85;;
36827;SDS011;22766;48.042;11.192;2022-11-20T08:45:28;1.52;;;1.00;;
36827;SDS011;22766;48.042;11.192;2022-11-20T08:48:00;5.70;;;1.60;;
36827;SDS011;22766;48.042;11.192;2022-11-20T08:50:28;2.05;;;0.95;;
36827;SDS011;22766;48.042;11.192;2022-11-20T08:53:04;1.40;;;0.85;;
36827;SDS011;22766;48.042;11.192;2022-11-20T08:55:31;0.93;;;0.60;;
36827;SDS011;22766;48.042;11.192;2022-11-20T08:57:58;1.52;;;0.90;;
36827;SDS011;22766;48.042;11.192;2022-11-20T09:00:29;1.33;;;0.77;;
36827;SDS011;22766;48.042;11.192;2022-11-20T09:02:55;0.75;;;0.60;;
36827;SDS011;22766;48.042;11.192;2022-11-20T09:05:22;1.00;;;0.70;;
36827;SDS011;22766;48.042;11.192;2022-11-20T09:07:48;1.30;;;0.77;;
36827;SDS011;22766;48.042;11.192;2022-11-20T09:10:15;2.42;;;0.73;;
36827;SDS011;22766;48.042;11.192;2022-11-20T09:12:49;1.83;;;0.73;;
36827;SDS011;22766;48.042;11.192;2022-11-20T09:15:18;2.20;;;0.52;;
36827;SDS011;22766;48.042;11.192;2022-11-20T09:20:19;0.90;;;0.43;;
36827;SDS011;22766;48.042;11.192;2022-11-20T09:22:46;1.33;;;0.75;;
36827;SDS011;22766;48.042;11.192;2022-11-20T09:25:13;1.27;;;0.80;;
36827;SDS011;22766;48.042;11.192;2022-11-20T09:27:40;0.55;;;0.52;;
36827;SDS011;22766;48.042;11.192;2022-11-20T09:30:09;2.67;;;0.90;;
36827;SDS011;22766;48.042;11.192;2022-11-20T09:32:38;0.73;;;0.60;;
36827;SDS011;22766;48.042;11.192;2022-11-20T09:35:05;1.33;;;0.60;;
36827;SDS011;22766;48.042;11.192;2022-11-20T09:37:32;1.65;;;0.80;;
36827;SDS011;22766;48.042;11.192;2022-11-20T09:39:58;2.38;;;0.60;;
36827;SDS011;22766;48.042;11.192;2022-11-20T09:50:49;1.05;;;0.60;;
36827;SDS011;22766;48.042;11.192;2022-11-20T09:53:25;1.48;;;0.80;;
36827;SDS011;22766;48.042;11.192;2022-11-20T10:01:16;0.63;;;0.63;;
36827;SDS011;22766;48.042;11.192;2022-11-20T10:03:58;0.40;;;0.40;;
36827;SDS011;22766;48.042;11.192;2022-11-20T10:10:16;0.70;;;0.43;;
36827;SDS011;22766;48.042;11.192;2022-11-20T10:24:10;1.15;;;0.60;;
36827;SDS011;22766;48.042;11.192;2022-11-20T10:30:09;1.02;;;0.60;;
36827;SDS011;22766;48.042;11.192;2022-11-20T10:32:37;1.00;;;0.50;;
36827;SDS011;22766;48.042;11.192;2022-11-20T10:38:02;1.33;;;0.60;;
36827;SDS011;22766;48.042;11.192;2022-11-20T10:40:38;0.65;;;0.40;;
36827;SDS011;22766;48.042;11.192;2022-11-20T10:48:23;1.13;;;0.65;;
36827;SDS011;22766;48.042;11.192;2022-11-20T10:56:31;0.47;;;0.47;;
36827;SDS011;22766;48.042;11.192;2022-11-20T11:01:40;0.60;;;0.60;;
36827;SDS011;22766;48.042;11.192;2022-11-20T11:04:21;0.95;;;0.50;;
36827;SDS011;22766;48.042;11.192;2022-11-20T11:06:50;0.50;;;0.40;;
36827;SDS011;22766;48.042;11.192;2022-11-20T11:09:22;3.10;;;0.50;;
36827;SDS011;22766;48.042;11.192;2022-11-20T11:11:58;0.65;;;0.50;;
36827;SDS011;22766;48.042;11.192;2022-11-20T11:14:40;0.50;;;0.50;;
36827;SDS011;22766;48.042;11.192;2022-11-20T11:17:17;0.40;;;0.40;;
36827;SDS011;22766;48.042;11.192;2022-11-20T11:19:56;1.23;;;0.60;;
36827;SDS011;22766;48.042;11.192;2022-11-20T11:22:26;0.95;;;0.50;;
36827;SDS011;22766;48.042;11.192;2022-11-20T11:24:56;0.47;;;0.43;;
36827;SDS011;22766;48.042;11.192;2022-11-20T11:27:23;1.00;;;0.70;;
36827;SDS011;22766;48.042;11.192;2022-11-20T11:29:50;1.42;;;0.40;;
36827;SDS011;22766;48.042;11.192;2022-11-20T11:32:29;0.95;;;0.60;;
36827;SDS011;22766;48.042;11.192;2022-11-20T11:35:02;0.57;;;0.43;;
36827;SDS011;22766;48.042;11.192;2022-11-20T11:37:34;2.95;;;1.40;;
36827;SDS011;22766;48.042;11.192;2022-11-20T11:40:03;0.77;;;0.60;;
36827;SDS011;22766;48.042;11.192;2022-11-20T11:42:53;3.53;;;0.80;;
36827;SDS011;22766;48.042;11.192;2022-11-20T11:45:23;0.95;;;0.65;;
36827;SDS011;22766;48.042;11.192;2022-11-20T11:47:50;0.55;;;0.55;;
36827;SDS011;22766;48.042;11.192;2022-11-20T11:50:20;0.95;;;0.52;;
36827;SDS011;22766;48.042;11.192;2022-11-20T11:52:56;1.98;;;0.75;;
36827;SDS011;22766;48.042;11.192;2022-11-20T11:55:26;0.43;;;0.40;;
36827;SDS011;22766;48.042;11.192;2022-11-20T11:58:13;1.48;;;0.70;;
36827;SDS011;22766;48.042;11.192;2022-11-20T12:00:57;1.67;;;0.70;;
36827;SDS011;22766;48.042;11.192;2022-11-20T12:03:33;0.82;;;0.63;;
36827;SDS011;22766;48.042;11.192;2022-11-20T12:06:09;0.75;;;0.50;;
36827;SDS011;22766;48.042;11.192;2022-11-20T12:11:27;0.82;;;0.52;;
36827;SDS011;22766;48.042;11.192;2022-11-20T12:16:50;0.65;;;0.60;;
36827;SDS011;22766;48.042;11.192;2022-11-20T12:19:19;0.80;;;0.40;;
36827;SDS011;22766;48.042;11.192;2022-11-20T12:32:51;1.60;;;0.63;;
36827;SDS011;22766;48.042;11.192;2022-11-20T12:41:39;1.73;;;0.85;;
36827;SDS011;22766;48.042;11.192;2022-11-20T13:07:03;0.77;;;0.60;;
36827;SDS011;22766;48.042;11.192;2022-11-20T13:09:35;1.30;;;0.85;;
36827;SDS011;22766;48.042;11.192;2022-11-20T13:12:10;1.20;;;0.65;;
36827;SDS011;22766;48.042;11.192;2022-11-20T13:14:50;2.20;;;0.73;;
36827;SDS011;22766;48.042;11.192;2022-11-20T13:19:55;1.30;;;0.57;;
36827;SDS011;22766;48.042;11.192;2022-11-20T13:22:28;1.67;;;0.80;;
36827;SDS011;22766;48.042;11.192;2022-11-20T13:25:09;1.80;;;0.88;;
36827;SDS011;22766;48.042;11.192;2022-11-20T13:27:47;2.45;;;1.00;;
36827;SDS011;22766;48.042;11.192;2022-11-20T13:30:16;1.23;;;0.77;;
36827;SDS011;22766;48.042;11.192;2022-11-20T13:32:52;1.13;;;0.90;;
36827;SDS011;22766;48.042;11.192;2022-11-20T13:35:26;3.25;;;1.00;;
36827;SDS011;22766;48.042;11.192;2022-11-20T13:38:04;2.08;;;0.82;;
36827;SDS011;22766;48.042;11.192;2022-11-20T13:43:33;1.58;;;0.77;;
36827;SDS011;22766;48.042;11.192;2022-11-20T13:46:07;1.60;;;0.85;;
36827;SDS011;22766;48.042;11.192;2022-11-20T13:48:39;1.75;;;0.70;;
36827;SDS011;22766;48.042;11.192;2022-11-20T14:02:28;1.00;;;0.70;;
36827;SDS011;22766;48.042;11.192;2022-11-20T14:04:57;0.98;;;0.68;;
36827;SDS011;22766;48.042;11.192;2022-11-20T14:07:31;1.60;;;0.85;;
36827;SDS011;22766;48.042;11.192;2022-11-20T14:10:02;0.73;;;0.60;;
36827;SDS011;22766;48.042;11.192;2022-11-20T14:12:30;2.05;;;0.50;;
36827;SDS011;22766;48.042;11.192;2022-11-20T14:14:59;1.08;;;0.35;;
36827;SDS011;22766;48.042;11.192;2022-11-20T14:20:04;0.38;;;0.30;;
36827;SDS011;22766;48.042;11.192;2022-11-20T14:22:32;0.10;;;0.10;;
36827;SDS011;22766;48.042;11.192;2022-11-20T14:27:39;0.20;;;0.20;;
36827;SDS011;22766;48.042;11.192;2022-11-20T14:30:14;0.50;;;0.30;;
36827;SDS011;22766;48.042;11.192;2022-11-20T14:32:56;1.67;;;0.20;;
36827;SDS011;22766;48.042;11.192;2022-11-20T14:35:28;0.40;;;0.30;;
36827;SDS011;22766;48.042;11.192;2022-11-20T14:37:57;0.38;;;0.30;;
36827;SDS011;22766;48.042;11.192;2022-11-20T14:40:25;0.82;;;0.50;;
36827;SDS011;22766;48.042;11.192;2022-11-20T14:43:15;0.70;;;0.40;;
36827;SDS011;22766;48.042;11.192;2022-11-20T14:46:03;0.43;;;0.40;;
36827;SDS011;22766;48.042;11.192;2022-11-20T14:48:39;2.25;;;0.50;;
36827;SDS011;22766;48.042;11.192;2022-11-20T14:51:10;1.23;;;0.50;;
36827;SDS011;22766;48.042;11.192;2022-11-20T14:53:38;1.40;;;0.73;;
36827;SDS011;22766;48.042;11.192;2022-11-20T14:56:04;0.60;;;0.40;;
36827;SDS011;22766;48.042;11.192;2022-11-20T14:58:32;1.20;;;0.40;;
36827;SDS011;22766;48.042;11.192;2022-11-20T15:01:06;1.35;;;0.68;;
36827;SDS011;22766;48.042;11.192;2022-11-20T15:03:34;0.93;;;0.70;;
36827;SDS011;22766;48.042;11.192;2022-11-20T15:06:07;2.03;;;0.70;;
36827;SDS011;22766;48.042;11.192;2022-11-20T15:08:36;3.95;;;1.75;;
36827;SDS011;22766;48.042;11.192;2022-11-20T15:11:14;6.53;;;3.05;;
36827;SDS011;22766;48.042;11.192;2022-11-20T15:13:44;5.40;;;2.95;;
36827;SDS011;22766;48.042;11.192;2022-11-20T15:16:17;4.50;;;2.17;;
36827;SDS011;22766;48.042;11.192;2022-11-20T15:18:46;3.80;;;1.77;;
36827;SDS011;22766;48.042;11.192;2022-11-20T15:21:14;18.42;;;8.40;;
36827;SDS011;22766;48.042;11.192;2022-11-20T15:23:43;14.05;;;5.75;;
36827;SDS011;22766;48.042;11.192;2022-11-20T15:26:10;4.13;;;1.88;;
36827;SDS011;22766;48.042;11.192;2022-11-20T15:28:45;5.55;;;2.45;;
36827;SDS011;22766;48.042;11.192;2022-11-20T15:31:15;2.67;;;1.48;;
36827;SDS011;22766;48.042;11.192;2022-11-20T15:33:43;1.63;;;1.00;;
36827;SDS011;22766;48.042;11.192;2022-11-20T15:36:10;0.90;;;0.75;;
36827;SDS011;22766;48.042;11.192;2022-11-20T15:38:36;1.40;;;0.50;;
36827;SDS011;22766;48.042;11.192;2022-11-20T15:41:03;0.65;;;0.47;;
36827;SDS011;22766;48.042;11.192;2022-11-20T15:43:31;1.42;;;0.57;;
36827;SDS011;22766;48.042;11.192;2022-11-20T15:46:01;1.40;;;0.85;;
36827;SDS011;22766;48.042;11.192;2022-11-20T15:48:41;0.85;;;0.52;;
36827;SDS011;22766;48.042;11.192;2022-11-20T15:53:52;0.90;;;0.68;;
36827;SDS011;22766;48.042;11.192;2022-11-20T15:56:21;16.20;;;6.00;;
36827;SDS011;22766;48.042;11.192;2022-11-20T15:58:48;12.07;;;5.63;;
36827;SDS011;22766;48.042;11.192;2022-11-20T16:01:16;6.65;;;3.80;;
36827;SDS011;22766;48.042;11.192;2022-11-20T16:03:45;2.08;;;1.60;;
36827;SDS011;22766;48.042;11.192;2022-11-20T16:06:13;4.47;;;1.80;;
36827;SDS011;22766;48.042;11.192;2022-11-20T16:08:39;5.95;;;2.95;;
36827;SDS011;22766;48.042;11.192;2022-11-20T16:11:06;2.70;;;1.83;;
36827;SDS011;22766;48.042;11.192;2022-11-20T16:13:33;11.60;;;4.03;;
36827;SDS011;22766;48.042;11.192;2022-11-20T16:16:26;11.40;;;5.32;;
36827;SDS011;22766;48.042;11.192;2022-11-20T16:18:56;2.65;;;1.42;;
36827;SDS011;22766;48.042;11.192;2022-11-20T16:21:23;4.00;;;1.30;;
36827;SDS011;22766;48.042;11.192;2022-11-20T16:23:57;1.40;;;0.90;;
36827;SDS011;22766;48.042;11.192;2022-11-20T16:26:24;1.15;;;0.80;;
36827;SDS011;22766;48.042;11.192;2022-11-20T16:28:51;0.63;;;0.55;;
36827;SDS011;22766;48.042;11.192;2022-11-20T16:31:18;1.52;;;0.88;;
36827;SDS011;22766;48.042;11.192;2022-11-20T16:33:52;1.52;;;0.63;;
36827;SDS011;22766;48.042;11.192;2022-11-20T16:36:20;0.57;;;0.40;;
36827;SDS011;22766;48.042;11.192;2022-11-20T16:38:55;2.15;;;0.90;;
36827;SDS011;22766;48.042;11.192;2022-11-20T16:41:24;2.00;;;0.68;;
36827;SDS011;22766;48.042;11.192;2022-11-20T16:43:55;2.60;;;0.63;;
36827;SDS011;22766;48.042;11.192;2022-11-20T16:46:27;1.23;;;0.90;;
36827;SDS011;22766;48.042;11.192;2022-11-20T16:48:56;1.52;;;0.70;;
36827;SDS011;22766;48.042;11.192;2022-11-20T16:51:25;1.75;;;0.82;;
36827;SDS011;22766;48.042;11.192;2022-11-20T16:53:52;3.75;;;1.00;;
36827;SDS011;22766;48.042;11.192;2022-11-20T16:56:23;3.10;;;1.08;;
36827;SDS011;22766;48.042;11.192;2022-11-20T16:58:52;0.80;;;0.73;;
36827;SDS011;22766;48.042;11.192;2022-11-20T17:01:21;3.65;;;0.90;;